createdAt,value
2018-03-25T00:01:43.718Z,2.40
2018-03-25T00:04:11.857Z,2.60
2018-03-25T00:06:39.962Z,2.50
2018-03-25T00:09:08.100Z,2.50
2018-03-25T00:11:36.206Z,2.40
2018-03-25T00:14:04.348Z,2.30
2018-03-25T00:16:32.468Z,2.10
2018-03-25T00:19:00.605Z,2.00
2018-03-25T00:21:28.712Z,2.20
2018-03-25T00:23:56.840Z,2.20
2018-03-25T00:26:24.955Z,2.30
2018-03-25T00:28:53.071Z,2.30
2018-03-25T00:31:21.945Z,2.30
2018-03-25T00:33:50.077Z,2.20
2018-03-25T00:36:18.191Z,2.30
2018-03-25T00:38:46.319Z,2.30
2018-03-25T00:41:14.418Z,2.40
2018-03-25T00:43:42.552Z,2.50
2018-03-25T00:46:10.733Z,2.40
2018-03-25T00:48:38.835Z,2.40
2018-03-25T00:51:06.941Z,2.30
2018-03-25T00:53:35.840Z,2.30
2018-03-25T00:56:04.716Z,2.30
2018-03-25T00:58:32.873Z,2.30
2018-03-25T01:01:00.983Z,2.30
2018-03-25T01:03:29.106Z,2.40
2018-03-25T01:05:57.236Z,2.40
2018-03-25T01:08:25.356Z,2.30
2018-03-25T01:10:53.473Z,2.30
2018-03-25T01:13:22.372Z,2.20
2018-03-25T01:16:02.132Z,2.20
2018-03-25T01:18:30.256Z,2.10
2018-03-25T01:20:58.359Z,2.00
2018-03-25T01:23:26.490Z,2.10
2018-03-25T01:25:54.604Z,2.10
2018-03-25T01:28:22.732Z,2.00
2018-03-25T01:30:50.844Z,2.00
2018-03-25T01:33:19.741Z,2.00
2018-03-25T01:35:47.855Z,2.00
2018-03-25T01:38:15.978Z,1.90
2018-03-25T01:40:44.853Z,1.80
2018-03-25T01:43:12.976Z,1.80
2018-03-25T01:45:41.074Z,1.80
2018-03-25T01:48:09.214Z,1.60
2018-03-25T01:50:37.316Z,1.70
2018-03-25T01:53:05.440Z,1.60
2018-03-25T01:55:33.553Z,1.60
2018-03-25T01:58:01.654Z,1.60
2018-03-25T02:00:29.779Z,1.60
2018-03-25T02:02:57.889Z,1.60
2018-03-25T02:05:26.014Z,1.60
2018-03-25T02:07:54.118Z,1.60
2018-03-25T02:10:22.253Z,1.60
2018-03-25T02:12:50.371Z,1.70
2018-03-25T02:15:18.507Z,1.70
2018-03-25T02:17:46.618Z,1.80
2018-03-25T02:20:14.755Z,1.80
2018-03-25T02:22:42.883Z,1.80
2018-03-25T02:25:11.004Z,1.70
2018-03-25T02:27:39.134Z,1.80
2018-03-25T02:30:07.247Z,1.70
2018-03-25T02:32:35.354Z,1.60
2018-03-25T02:35:03.502Z,1.60
2018-03-25T02:37:31.605Z,1.60
2018-03-25T02:39:59.744Z,1.50
2018-03-25T02:42:27.848Z,1.60
2018-03-25T02:44:56.620Z,1.60
2018-03-25T02:47:24.728Z,1.60
2018-03-25T02:49:52.895Z,1.60
2018-03-25T02:52:21.013Z,1.60
2018-03-25T02:54:49.165Z,1.60
2018-03-25T02:57:18.053Z,1.50
2018-03-25T02:59:46.180Z,1.50
2018-03-25T03:02:14.291Z,1.50
2018-03-25T03:04:42.429Z,1.60
2018-03-25T03:07:10.537Z,1.50
2018-03-25T03:09:38.667Z,1.50
2018-03-25T03:12:06.770Z,1.50
2018-03-25T03:14:34.895Z,1.50
2018-03-25T03:17:03.006Z,1.50
2018-03-25T03:19:31.139Z,1.60
2018-03-25T03:21:59.246Z,1.50
2018-03-25T03:24:27.363Z,1.50
2018-03-25T03:26:56.226Z,1.50
2018-03-25T03:29:24.361Z,1.50
2018-03-25T03:31:52.467Z,1.50
2018-03-25T03:34:20.602Z,1.40
2018-03-25T03:36:48.718Z,1.40
2018-03-25T03:39:16.843Z,1.30
2018-03-25T03:41:44.949Z,1.30
2018-03-25T03:44:13.075Z,1.30
2018-03-25T03:46:41.198Z,1.20
2018-03-25T03:49:09.324Z,1.20
2018-03-25T03:51:37.452Z,1.30
2018-03-25T03:54:05.579Z,1.30
2018-03-25T03:56:33.724Z,1.30
2018-03-25T03:59:02.795Z,1.20
2018-03-25T04:01:30.916Z,1.20
2018-03-25T04:03:59.043Z,1.10
2018-03-25T04:06:27.143Z,1.10
2018-03-25T04:08:56.035Z,1.10
2018-03-25T04:11:24.903Z,1.10
2018-03-25T04:13:53.050Z,1.10
2018-03-25T04:16:21.172Z,1.20
2018-03-25T04:18:50.067Z,1.20
2018-03-25T04:21:18.183Z,1.10
2018-03-25T04:23:46.319Z,1.20
2018-03-25T04:26:14.456Z,1.30
2018-03-25T04:28:42.554Z,1.30
2018-03-25T04:31:11.456Z,1.10
2018-03-25T04:33:39.576Z,1.10
2018-03-25T04:36:07.710Z,1.10
2018-03-25T04:38:35.819Z,1.10
2018-03-25T04:41:03.948Z,1.10
2018-03-25T04:43:32.050Z,1.10
2018-03-25T04:46:00.187Z,1.10
2018-03-25T04:48:28.296Z,1.10
2018-03-25T04:50:56.449Z,1.00
2018-03-25T04:53:24.544Z,0.90
2018-03-25T04:55:52.674Z,0.90
2018-03-25T04:58:20.806Z,1.00
2018-03-25T05:00:48.932Z,0.90
2018-03-25T05:03:17.035Z,0.90
2018-03-25T05:05:45.172Z,0.90
2018-03-25T05:08:13.270Z,1.00
2018-03-25T05:10:41.405Z,1.00
2018-03-25T05:13:10.277Z,0.90
2018-03-25T05:15:38.402Z,0.90
2018-03-25T05:18:06.514Z,0.90
2018-03-25T05:20:34.657Z,0.90
2018-03-25T05:23:02.765Z,0.90
2018-03-25T05:25:30.899Z,0.90
2018-03-25T05:27:59.045Z,1.00
2018-03-25T05:30:27.134Z,1.00
2018-03-25T05:32:55.250Z,1.00
2018-03-25T05:35:23.376Z,1.20
2018-03-25T05:37:51.501Z,1.30
2018-03-25T05:40:19.741Z,1.30
2018-03-25T05:42:47.844Z,1.40
2018-03-25T05:45:15.975Z,1.40
2018-03-25T05:47:44.087Z,1.30
2018-03-25T05:50:12.220Z,1.30
2018-03-25T05:52:40.320Z,1.50
2018-03-25T05:55:08.450Z,1.70
2018-03-25T05:57:36.568Z,1.80
2018-03-25T06:00:05.805Z,2.20
2018-03-25T06:02:34.687Z,2.50
2018-03-25T06:05:02.910Z,2.80
2018-03-25T06:07:31.025Z,2.80
2018-03-25T06:09:59.152Z,2.70
2018-03-25T06:12:27.256Z,2.90
2018-03-25T06:14:55.383Z,3.40
2018-03-25T06:17:23.500Z,3.70
2018-03-25T06:19:51.623Z,3.90
2018-03-25T06:22:20.507Z,4.20
2018-03-25T06:24:49.392Z,4.70
2018-03-25T06:27:18.278Z,4.80
2018-03-25T06:29:46.400Z,4.80
2018-03-25T06:32:14.519Z,5.10
2018-03-25T06:34:42.660Z,5.50
2018-03-25T06:37:10.774Z,6.10
2018-03-25T06:39:38.939Z,6.50
2018-03-25T06:42:07.039Z,7.10
2018-03-25T06:44:35.178Z,7.50
2018-03-25T06:47:03.274Z,8.00
2018-03-25T06:49:32.179Z,8.90
2018-03-25T06:52:00.306Z,8.90
2018-03-25T06:54:28.404Z,9.40
2018-03-25T06:56:57.293Z,9.80
2018-03-25T06:59:25.390Z,9.70
2018-03-25T07:01:53.533Z,9.50
2018-03-25T07:04:21.644Z,9.30
2018-03-25T07:06:49.776Z,9.40
2018-03-25T07:09:17.883Z,9.30
2018-03-25T07:11:46.009Z,8.90
2018-03-25T07:14:14.108Z,9.00
2018-03-25T07:16:43.007Z,10.20
2018-03-25T07:19:12.676Z,10.40
2018-03-25T07:21:40.817Z,10.40
2018-03-25T07:24:08.945Z,11.20
2018-03-25T07:26:37.119Z,11.60
2018-03-25T07:29:05.823Z,11.90
2018-03-25T07:31:34.005Z,12.30
2018-03-25T07:34:02.882Z,13.60
2018-03-25T07:36:31.202Z,13.50
2018-03-25T07:38:59.342Z,13.70
2018-03-25T07:41:28.236Z,15.10
2018-03-25T07:43:57.221Z,15.00
2018-03-25T07:46:26.129Z,15.40
2018-03-25T07:48:55.408Z,16.30
2018-03-25T07:51:24.312Z,16.60
2018-03-25T07:53:53.219Z,16.80
2018-03-25T07:56:21.346Z,16.70
2018-03-25T07:58:49.471Z,15.90
2018-03-25T08:01:17.605Z,15.60
2018-03-25T08:03:45.720Z,15.90
2018-03-25T08:06:13.856Z,16.10
2018-03-25T08:08:42.034Z,15.80
2018-03-25T08:11:10.183Z,15.60
2018-03-25T08:13:38.296Z,15.30
2018-03-25T08:16:07.791Z,15.20
2018-03-25T08:18:35.874Z,15.00
2018-03-25T08:21:04.020Z,15.10
2018-03-25T08:23:32.127Z,15.30
2018-03-25T08:26:00.264Z,15.20
2018-03-25T08:28:28.472Z,15.20
2018-03-25T08:30:56.609Z,15.30
2018-03-25T08:33:24.732Z,15.80
2018-03-25T08:35:52.874Z,16.10
2018-03-25T08:38:21.761Z,17.70
2018-03-25T08:40:50.664Z,18.90
2018-03-25T08:43:19.543Z,19.90
2018-03-25T08:45:48.457Z,20.70
2018-03-25T08:48:16.564Z,20.70
2018-03-25T08:50:44.857Z,21.70
2018-03-25T08:53:12.979Z,22.10
2018-03-25T08:55:41.125Z,21.80
2018-03-25T08:58:09.231Z,21.90
2018-03-25T09:00:37.372Z,22.80
2018-03-25T09:03:05.489Z,23.30
2018-03-25T09:05:33.612Z,23.70
2018-03-25T09:08:01.765Z,23.90
2018-03-25T09:10:29.927Z,23.60
2018-03-25T09:12:58.077Z,24.10
2018-03-25T09:15:26.486Z,24.40
2018-03-25T09:17:55.745Z,24.80
2018-03-25T09:20:24.046Z,24.80
2018-03-25T09:22:52.184Z,24.80
2018-03-25T09:25:21.058Z,24.90
2018-03-25T09:27:49.188Z,24.90
2018-03-25T09:30:17.304Z,25.00
2018-03-25T09:32:45.438Z,24.80
2018-03-25T09:35:13.556Z,24.80
2018-03-25T09:37:42.455Z,24.10
2018-03-25T09:40:16.068Z,24.70
2018-03-25T09:42:45.754Z,24.70
2018-03-25T09:45:14.627Z,24.10
2018-03-25T09:47:42.789Z,24.10
2018-03-25T09:50:11.303Z,23.60
2018-03-25T09:52:40.231Z,23.80
2018-03-25T09:55:08.348Z,23.80
2018-03-25T09:57:36.491Z,24.10
2018-03-25T10:00:05.001Z,24.00
2018-03-25T10:02:40.426Z,22.20
2018-03-25T10:05:08.542Z,22.20
2018-03-25T10:07:37.439Z,22.60
2018-03-25T10:10:06.399Z,22.40
2018-03-25T10:12:34.543Z,22.40
2018-03-25T10:15:02.659Z,22.30
2018-03-25T10:17:30.800Z,22.80
2018-03-25T10:19:58.912Z,22.40
2018-03-25T10:22:27.056Z,21.80
2018-03-25T10:24:55.195Z,20.60
2018-03-25T10:27:24.098Z,20.00
2018-03-25T10:29:52.249Z,19.90
2018-03-25T10:32:20.379Z,19.30
2018-03-25T10:34:48.500Z,18.80
2018-03-25T10:37:16.625Z,18.20
2018-03-25T10:39:44.744Z,17.70
2018-03-25T10:42:12.884Z,17.30
2018-03-25T10:44:40.988Z,16.60
2018-03-25T10:47:11.478Z,16.20
2018-03-25T10:49:39.599Z,16.20
2018-03-25T10:52:07.744Z,16.20
2018-03-25T10:54:36.644Z,15.80
2018-03-25T10:57:05.514Z,15.60
2018-03-25T10:59:33.651Z,15.60
2018-03-25T11:02:01.774Z,15.50
2018-03-25T11:04:30.679Z,15.50
2018-03-25T11:06:58.791Z,15.50
2018-03-25T11:09:26.926Z,15.50
2018-03-25T11:11:55.183Z,15.60
2018-03-25T11:14:23.292Z,15.70
2018-03-25T11:16:51.416Z,15.80
2018-03-25T11:19:19.555Z,16.00
2018-03-25T11:21:47.677Z,15.90
2018-03-25T11:24:16.584Z,15.30
2018-03-25T11:26:45.460Z,15.30
2018-03-25T11:29:14.395Z,15.10
2018-03-25T11:31:42.495Z,15.10
2018-03-25T11:34:10.637Z,15.30
2018-03-25T11:36:38.746Z,15.30
2018-03-25T11:39:06.896Z,15.60
2018-03-25T11:41:34.999Z,15.90
2018-03-25T11:44:03.242Z,16.20
2018-03-25T11:46:31.350Z,16.20
2018-03-25T11:48:59.494Z,15.70
2018-03-25T11:51:27.606Z,15.40
2018-03-25T11:53:56.525Z,16.00
2018-03-25T11:56:24.645Z,16.00
2018-03-25T11:58:52.781Z,16.40
2018-03-25T12:01:20.903Z,16.60
2018-03-25T12:03:49.050Z,16.60
2018-03-25T12:06:17.174Z,16.30
2018-03-25T12:08:46.075Z,15.70
2018-03-25T12:11:14.999Z,15.50
2018-03-25T12:13:43.187Z,15.50
2018-03-25T12:16:11.298Z,15.40
2018-03-25T12:18:40.200Z,15.00
2018-03-25T12:21:09.110Z,14.90
2018-03-25T12:23:37.235Z,14.90
2018-03-25T12:26:05.343Z,15.20
2018-03-25T12:28:33.480Z,15.20
2018-03-25T12:31:01.591Z,15.10
2018-03-25T12:33:30.483Z,15.50
2018-03-25T12:35:59.399Z,15.40
2018-03-25T12:38:27.543Z,15.40
2018-03-25T12:40:56.411Z,15.50
2018-03-25T12:43:24.550Z,15.50
2018-03-25T12:45:52.669Z,15.50
2018-03-25T12:48:21.576Z,15.50
2018-03-25T12:50:49.698Z,15.50
2018-03-25T12:53:17.826Z,15.40
2018-03-25T12:55:45.948Z,15.50
2018-03-25T12:58:14.089Z,15.30
2018-03-25T13:00:42.192Z,15.10
2018-03-25T13:03:10.332Z,15.10
2018-03-25T13:05:38.441Z,15.00
2018-03-25T13:08:06.555Z,15.00
2018-03-25T13:10:35.514Z,15.00
2018-03-25T13:13:03.592Z,15.00
2018-03-25T13:15:31.724Z,15.00
2018-03-25T13:17:59.835Z,14.80
2018-03-25T13:20:28.399Z,14.70
2018-03-25T13:22:56.520Z,14.60
2018-03-25T13:25:25.411Z,14.60
2018-03-25T13:27:54.296Z,14.50
2018-03-25T13:30:23.194Z,14.20
2018-03-25T13:32:52.076Z,14.20
2018-03-25T13:35:20.989Z,14.20
2018-03-25T13:37:49.111Z,14.20
2018-03-25T13:40:17.245Z,14.30
2018-03-25T13:42:45.355Z,14.50
2018-03-25T13:45:13.491Z,14.60
2018-03-25T13:47:41.604Z,14.60
2018-03-25T13:50:09.744Z,14.30
2018-03-25T13:52:37.847Z,14.30
2018-03-25T13:55:05.977Z,14.30
2018-03-25T13:57:34.093Z,14.60
2018-03-25T14:00:03.015Z,14.60
2018-03-25T14:02:34.911Z,14.60
2018-03-25T14:05:03.043Z,14.70
2018-03-25T14:07:31.158Z,14.80
2018-03-25T14:09:59.296Z,14.90
2018-03-25T14:12:27.408Z,14.70
2018-03-25T14:14:55.534Z,14.70
2018-03-25T14:17:23.643Z,14.70
2018-03-25T14:19:51.771Z,14.80
2018-03-25T14:22:20.663Z,14.80
2018-03-25T14:24:49.568Z,14.70
2018-03-25T14:27:17.679Z,14.70
2018-03-25T14:29:45.816Z,14.80
2018-03-25T14:32:13.927Z,14.70
2018-03-25T14:34:42.056Z,14.60
2018-03-25T14:37:10.173Z,14.70
2018-03-25T14:39:39.036Z,14.60
2018-03-25T14:42:07.157Z,14.60
2018-03-25T14:44:35.295Z,14.70
2018-03-25T14:47:03.476Z,14.70
2018-03-25T14:49:31.616Z,14.70
2018-03-25T14:51:59.722Z,14.70
2018-03-25T14:54:27.868Z,14.40
2018-03-25T14:56:55.975Z,14.30
2018-03-25T14:59:24.116Z,14.40
2018-03-25T15:01:52.259Z,14.30
2018-03-25T15:04:20.370Z,14.00
2018-03-25T15:06:48.476Z,13.70
2018-03-25T15:09:16.640Z,13.60
2018-03-25T15:11:44.752Z,13.50
2018-03-25T15:14:13.658Z,13.20
2018-03-25T15:16:42.537Z,13.20
2018-03-25T15:19:11.452Z,13.00
2018-03-25T15:21:39.562Z,13.00
2018-03-25T15:24:07.692Z,12.90
2018-03-25T15:26:35.808Z,12.90
2018-03-25T15:29:03.921Z,12.90
2018-03-25T15:31:32.828Z,12.70
2018-03-25T15:34:00.949Z,12.70
2018-03-25T15:36:29.084Z,12.60
2018-03-25T15:38:57.201Z,12.60
2018-03-25T15:41:25.334Z,12.60
2018-03-25T15:43:53.444Z,12.70
2018-03-25T15:46:21.596Z,12.50
2018-03-25T15:48:49.709Z,12.50
2018-03-25T15:51:17.860Z,12.70
2018-03-25T15:53:45.974Z,12.70
2018-03-25T15:56:14.887Z,12.70
2018-03-25T15:58:43.001Z,12.70
2018-03-25T16:01:11.153Z,12.70
2018-03-25T16:03:39.255Z,12.70
2018-03-25T16:06:07.405Z,12.80
2018-03-25T16:08:35.542Z,12.60
2018-03-25T16:11:04.469Z,12.00
2018-03-25T16:13:33.418Z,12.00
2018-03-25T16:16:02.470Z,12.10
2018-03-25T16:18:30.690Z,12.00
2018-03-25T16:20:59.594Z,11.90
2018-03-25T16:23:27.719Z,11.80
2018-03-25T16:25:55.864Z,11.70
2018-03-25T16:28:23.985Z,11.70
2018-03-25T16:30:52.183Z,11.60
2018-03-25T16:33:21.088Z,11.60
2018-03-25T16:35:49.220Z,11.60
2018-03-25T16:38:17.344Z,11.60
2018-03-25T16:40:45.497Z,11.50
2018-03-25T16:43:14.369Z,11.40
2018-03-25T16:45:42.509Z,11.40
2018-03-25T16:48:10.628Z,11.40
2018-03-25T16:50:42.182Z,11.60
2018-03-25T16:53:11.089Z,11.50
2018-03-25T16:55:40.019Z,11.50
2018-03-25T16:58:08.152Z,11.40
2018-03-25T17:00:37.184Z,11.30
2018-03-25T17:03:05.328Z,11.30
2018-03-25T17:05:33.492Z,11.30
2018-03-25T17:08:02.368Z,10.90
2018-03-25T17:10:30.536Z,10.90
2018-03-25T17:12:59.337Z,10.80
2018-03-25T17:15:27.462Z,10.90
2018-03-25T17:17:55.586Z,10.80
2018-03-25T17:20:23.728Z,10.80
2018-03-25T17:22:51.910Z,10.70
2018-03-25T17:25:20.064Z,10.80
2018-03-25T17:27:48.175Z,10.70
2018-03-25T17:30:16.319Z,10.70
2018-03-25T17:32:44.439Z,10.80
2018-03-25T17:35:12.618Z,10.80
2018-03-25T17:37:41.498Z,10.70
2018-03-25T17:40:09.647Z,10.70
2018-03-25T17:42:37.778Z,10.60
2018-03-25T17:45:05.930Z,10.60
2018-03-25T17:47:34.825Z,10.40
2018-03-25T17:50:03.203Z,10.40
2018-03-25T17:52:31.445Z,10.40
2018-03-25T17:55:00.213Z,10.30
2018-03-25T17:57:28.343Z,10.30
2018-03-25T17:59:57.317Z,10.20
2018-03-25T18:02:25.502Z,10.20
2018-03-25T18:04:54.400Z,10.20
2018-03-25T18:07:22.564Z,10.20
2018-03-25T18:09:50.686Z,10.20
2018-03-25T18:12:18.840Z,10.10
2018-03-25T18:14:46.980Z,10.10
2018-03-25T18:17:33.463Z,10.20
2018-03-25T18:19:43.271Z,10.20
2018-03-25T18:22:11.403Z,10.10
2018-03-25T18:24:39.525Z,10.10
2018-03-25T18:27:07.655Z,10.10
2018-03-25T18:29:35.768Z,10.10
2018-03-25T18:32:03.908Z,10.20
2018-03-25T18:34:32.792Z,10.20
2018-03-25T18:37:00.934Z,10.20
2018-03-25T18:39:29.062Z,10.10
2018-03-25T18:41:57.963Z,10.10
2018-03-25T18:44:26.296Z,10.10
2018-03-25T18:46:54.489Z,10.00
2018-03-25T18:49:23.369Z,9.70
2018-03-25T18:51:51.781Z,9.70
2018-03-25T18:54:20.677Z,9.70
2018-03-25T18:56:48.836Z,9.70
2018-03-25T18:59:17.717Z,9.90
2018-03-25T19:01:45.848Z,9.80
2018-03-25T19:04:13.952Z,9.80
2018-03-25T19:06:42.105Z,9.70
2018-03-25T19:09:10.210Z,9.70
2018-03-25T19:11:39.132Z,9.80
2018-03-25T19:14:07.239Z,9.70
2018-03-25T19:16:35.366Z,9.70
2018-03-25T19:19:03.480Z,9.60
2018-03-25T19:21:31.617Z,9.60
2018-03-25T19:23:59.724Z,9.70
2018-03-25T19:26:27.850Z,9.60
2018-03-25T19:28:56.723Z,9.50
2018-03-25T19:31:24.873Z,9.50
2018-03-25T19:33:52.985Z,9.40
2018-03-25T19:36:21.955Z,9.40
2018-03-25T19:38:50.052Z,9.40
2018-03-25T19:41:18.943Z,9.40
2018-03-25T19:43:47.143Z,9.40
2018-03-25T19:46:15.338Z,9.30
2018-03-25T19:48:43.512Z,9.40
2018-03-25T19:51:11.838Z,9.40
2018-03-25T19:53:40.496Z,9.30
2018-03-25T19:56:08.819Z,9.20
2018-03-25T19:58:36.945Z,9.20
2018-03-25T20:01:05.084Z,9.20
2018-03-25T20:03:33.217Z,9.20
2018-03-25T20:06:01.374Z,9.10
2018-03-25T20:08:29.728Z,9.10
2018-03-25T20:10:57.880Z,9.10
2018-03-25T20:13:26.771Z,9.20
2018-03-25T20:15:55.713Z,9.20
2018-03-25T20:18:23.823Z,9.20
2018-03-25T20:20:52.183Z,9.20
2018-03-25T20:23:20.531Z,9.20
2018-03-25T20:25:48.671Z,9.20
2018-03-25T20:28:17.572Z,9.20
2018-03-25T20:30:46.226Z,9.20
2018-03-25T20:33:14.566Z,9.10
2018-03-25T20:35:42.956Z,9.20
2018-03-25T20:38:11.392Z,9.20
2018-03-25T20:40:40.285Z,9.00
2018-03-25T20:43:09.450Z,8.90
2018-03-25T20:45:37.556Z,8.90
2018-03-25T20:48:05.817Z,8.90
2018-03-25T20:50:34.692Z,9.00
2018-03-25T20:53:04.665Z,9.00
2018-03-25T20:55:32.819Z,8.80
2018-03-25T20:58:00.991Z,8.80
2018-03-25T21:00:29.862Z,8.90
2018-03-25T21:02:58.756Z,9.00
2018-03-25T21:05:26.859Z,9.00
2018-03-25T21:07:55.008Z,9.00
2018-03-25T21:10:23.879Z,9.00
2018-03-25T21:12:52.029Z,9.00
2018-03-25T21:15:20.137Z,9.00
2018-03-25T21:17:48.278Z,9.00
2018-03-25T21:20:16.379Z,9.00
2018-03-25T21:22:44.512Z,8.80
2018-03-25T21:25:12.630Z,8.80
2018-03-25T21:27:40.764Z,8.90
2018-03-25T21:30:08.872Z,8.80
2018-03-25T21:32:37.004Z,8.80
2018-03-25T21:35:05.137Z,8.90
2018-03-25T21:37:34.042Z,8.80
2018-03-25T21:40:02.934Z,8.70
2018-03-25T21:42:31.819Z,9.00
2018-03-25T21:45:00.703Z,8.90
2018-03-25T21:47:28.830Z,8.90
2018-03-25T21:50:02.870Z,8.80
2018-03-25T21:52:31.029Z,8.70
2018-03-25T21:54:59.149Z,8.70
2018-03-25T21:57:27.284Z,8.70
2018-03-25T21:59:55.416Z,8.60
2018-03-25T22:02:23.544Z,8.70
2018-03-25T22:04:52.425Z,8.70
2018-03-25T22:07:20.542Z,8.70
2018-03-25T22:09:48.642Z,8.70
2018-03-25T22:12:16.779Z,8.60
2018-03-25T22:14:44.896Z,8.60
2018-03-25T22:17:13.024Z,8.40
2018-03-25T22:19:41.139Z,8.40
2018-03-25T22:22:09.283Z,8.50
2018-03-25T22:24:37.414Z,8.50
2018-03-25T22:27:05.593Z,8.50
2018-03-25T22:29:34.466Z,8.20
2018-03-25T22:32:02.609Z,8.10
2018-03-25T22:34:30.722Z,8.10
2018-03-25T22:36:58.860Z,8.00
2018-03-25T22:39:27.878Z,7.80
2018-03-25T22:41:56.008Z,7.80
2018-03-25T22:44:24.149Z,7.70
2018-03-25T22:46:53.043Z,7.60
2018-03-25T22:49:21.926Z,7.60
2018-03-25T22:51:50.056Z,7.50
2018-03-25T22:54:18.163Z,7.30
2018-03-25T22:56:46.304Z,7.30
2018-03-25T22:59:14.418Z,7.20
2018-03-25T23:01:42.583Z,7.10
2018-03-25T23:04:10.687Z,7.10
2018-03-25T23:06:38.787Z,7.00
2018-03-25T23:09:06.935Z,6.90
2018-03-25T23:11:35.040Z,6.80
2018-03-25T23:14:03.261Z,6.80
2018-03-25T23:16:32.140Z,6.60
2018-03-25T23:19:00.275Z,6.60
2018-03-25T23:21:28.379Z,6.60
2018-03-25T23:23:56.536Z,6.60
2018-03-25T23:26:24.652Z,6.50
2018-03-25T23:28:53.632Z,6.50
2018-03-25T23:31:21.736Z,6.50
2018-03-25T23:33:49.879Z,6.50
2018-03-25T23:36:18.013Z,6.50
2018-03-25T23:38:46.149Z,6.40
2018-03-25T23:41:14.259Z,6.40
2018-03-25T23:43:42.392Z,6.40
2018-03-25T23:46:10.524Z,6.40
2018-03-25T23:48:38.651Z,6.30
2018-03-25T23:51:06.773Z,6.30
2018-03-25T23:53:34.898Z,6.30
2018-03-25T23:56:03.109Z,6.30
2018-03-25T23:58:31.252Z,6.30
